Welcome to our Virtual Airline
Sign-in:

Flight MFC48161

  • Submitted By: John Dean
  • Departure Airport: Horsfeld (4Z5)
  • Arrival Airport: Glacier Creek (KGZ)
  • Aircraft: CESSNA 185 (N016MM)
  • Flight Time: 00.48.39
  • Date Submitted: 2019/10/23
  • Route: STOP AT ROCK LAKE CABIN (RKLK) AND SKOLIA LAKE CABIN (SKOL
  • Status: Accepted
Flight Details
Gross Revenue:
(3 load / $ 94.00 per unit
$ 282.00
Fuel Cost:
(20.8652 fuel used @ 5.1 / unit)
$ 106.41

Additional Log Information:

View Log

[20:50] ----- Flight Opened -----
[20:50] Cigar Box - 1.1.4.0
[20:50] FS: FSX
[20:50] FSUIPC: v4.973
[20:50] Flight Number: MFC48161
[20:50] FS Aircraft: C185F AMPHIBIAN Alaska Adventures
[20:50] FS Model: C185
[20:50] FS Type: Cessna
[20:50] Departure: 4Z5
[20:50] Arrival: KGZ
[20:50] Flight Level: 8500
[20:50] Flight Type: H
[20:50] Passengers: 3
[20:50] FOB: 383 lbs
[20:50] Gate: n/a
[20:50] Crash Detection: Disabled
[20:50] Crash Detection Aircraft: Disabled
[20:50] Engines: 1 Piston
[20:50] NOTE: Boarding has started
[20:50] FS: Paused
[20:50] Parking Brake: Engaged
[20:50] Engine 1: Started
[20:50] Flaps: Position 1
[20:50] Light Data: Navigation ON
[20:50] Light Data: Beacon ON
[20:50] Light Data: Landing lights ON
[20:50] Light Data: Taxi lights ON
[20:50] Light Data: Strobe lights ON
[20:50] Light Data: Instrument lights ON
[20:50] Light Data: Recognition lights ON
[20:50] Light Data: Wing lights ON
[20:50] Light Data: Logo lights ON
[20:50] Light Data: Cabin lights ON
[20:50] Main Door Closed
[20:50] COM1: 128.30
[20:50] COM2: 127.80
[20:50] Transponder: 1200
[20:50] NAV1: 113.70
[20:50] NAV2: 110.60
[20:50] ADF1: 284.0
[20:50] ADF2: 240.0
[20:50] Navigation Mode: GPS
[20:50] Navigation Mode: GPS
[20:50] FS: Unpaused
[20:51] Parking Brake: Released
[20:51] NOTE: Taxi started
[20:51] NOTE: ----- TAKE OFF -----
[20:51] GS: 54 knots
[20:51] TAS: 55 knots
[20:51] IAS: 52 knots
[20:51] VS: 0 fpm
[20:51] FOB: 383 lbs
[20:51] Heading: 21°
[20:51] Pitch: 1°
[20:51] Bank: 0°
[20:51] Aircraft Weight: 2488.75 lbs
[20:51] Nearest Airport: 4Z5
[20:51] Distance: 0.00 miles
[20:51] Runway: ???
[20:51] Ground Surface: Grass
[20:51] Ground Condition: Normal
[20:51] NOTE: Weather Report
[20:51] Wind Heading: 336°
[20:51] Wind Speed: 0 knots
[20:51] OAT: 7° C
[20:51] TAT: 8° C
[20:51] Precipitation: None
[20:51] Dew Point: -2° C
[20:51] Visibility: 62 miles
[20:51] METAR:
[20:51] NOTE: Climb started
[20:51] Autopilot: Engaged
[20:51] AGL: 19 ft
[20:51] AMSL: 3631 ft
[20:51] Landing Gear: Retracted
[20:51] GS: 73 knots
[20:51] TAS: 75 knots
[20:51] IAS: 71 knots
[20:51] VS: 482 fpm
[20:51] AGL: 39 ft
[20:51] AMSL: 3641 ft
[20:51] View Mode: Spot Plane
[21:00] Flaps: Position 2
[21:00] GS: 85 knots
[21:00] TAS: 87 knots
[21:00] IAS: 82 knots
[21:00] VS: 13 fpm
[21:00] Autopilot: Disengaged
[21:00] AGL: 364 ft
[21:00] AMSL: 4209 ft
[21:01] Flaps: Position 3
[21:01] GS: 77 knots
[21:01] TAS: 78 knots
[21:01] IAS: 73 knots
[21:01] VS: -417 fpm
[21:01] NOTE: ----- LANDED -----
[21:01] Landing Rate: -316.04 fpm
[21:01] GS: 54 knots
[21:01] TAS: 54 knots
[21:01] IAS: 51 knots
[21:01] VS: -296 fpm
[21:01] FOB: 370 lbs
[21:01] Heading: 208°
[21:01] Pitch: 5°
[21:01] Bank: 0°
[21:01] Aircraft Weight: 2475.58 lbs
[21:01] Nearest Airport: RKLK
[21:01] Distance: 0.55 miles
[21:01] Runway: ???
[21:01] Ground Surface: Water
[21:01] Ground Condition: Normal
[21:01] NOTE: Weather Report
[21:01] Wind Heading: 336°
[21:01] Wind Speed: 0 knots
[21:01] OAT: 7° C
[21:01] TAT: 8° C
[21:01] Precipitation: None
[21:01] Dew Point: -2° C
[21:01] Visibility: 62 miles
[21:01] METAR: KGZN 230120Z AUTO 13009KT 10SM CLR 16/00 A3010 RMK AO2 KGZH 230053Z AUTO 00000KT 10SM CLR 14/10 A3010 RMK AO2 SLP192 T01390100 KGZL 230135Z AUTO 00000KT 10SM CLR 09/04 A3010 RMK AO2 KGZS 230135Z AUTO 30004KT 10SM CLR 11/04 A3009 RMK A01
[21:01] View Mode: Spot Plane
[21:01] Flaps: Position 0
[21:01] GS: 48 knots
[21:01] TAS: 49 knots
[21:01] IAS: 47 knots
[21:01] VS: -16 fpm
[21:02] NOTE: Taxi started
[21:04] NOTE: Arrived
[21:04] Parking Brake: Engaged
[21:04] Main Door Open
[21:05] Main Door Closed
[21:06] Parking Brake: Released
[21:07] Flaps: Position 1
[21:07] Autopilot: Engaged
[21:07] AGL: 23 ft
[21:07] AMSL: 3602 ft
[21:08] Flaps: Position 0
[21:08] GS: 83 knots
[21:08] TAS: 85 knots
[21:08] IAS: 81 knots
[21:08] VS: 924 fpm
[21:08] View Mode: Spot Plane
[21:10] COM1: 126.55
[21:17] Flaps: Position 1
[21:17] GS: 110 knots
[21:17] TAS: 111 knots
[21:17] IAS: 102 knots
[21:17] VS: 46 fpm
[21:18] Flaps: Position 2
[21:18] GS: 99 knots
[21:18] TAS: 100 knots
[21:18] IAS: 93 knots
[21:18] VS: -302 fpm
[21:19] Autopilot: Disengaged
[21:19] AGL: 755 ft
[21:19] AMSL: 5239 ft
[21:20] Flaps: Position 3
[21:20] GS: 91 knots
[21:20] TAS: 93 knots
[21:20] IAS: 87 knots
[21:20] VS: -1079 fpm
[21:20] Landing Gear: Extended
[21:20] GS: 75 knots
[21:20] TAS: 77 knots
[21:20] IAS: 72 knots
[21:20] VS: -723 fpm
[21:20] AGL: 174 ft
[21:20] AMSL: 4606 ft
[21:20] NOTE: ----- LANDED -----
[21:20] Landing Rate: -252.98 fpm
[21:20] GS: 50 knots
[21:20] TAS: 51 knots
[21:20] IAS: 48 knots
[21:20] VS: -252 fpm
[21:20] FOB: 351 lbs
[21:20] Heading: 256°
[21:20] Pitch: 5°
[21:20] Bank: 0°
[21:20] Aircraft Weight: 2456.28 lbs
[21:20] Nearest Airport: SKOL
[21:20] Distance: 0.70 miles
[21:20] Runway: ???
[21:20] Ground Surface: Grass Bumpy
[21:20] Ground Condition: Normal
[21:20] NOTE: Weather Report
[21:20] Wind Heading: 336°
[21:20] Wind Speed: 0 knots
[21:20] OAT: 6° C
[21:20] TAT: 6° C
[21:20] Precipitation: None
[21:20] Dew Point: -3° C
[21:20] Visibility: 62 miles
[21:20] METAR: KGZN 230120Z AUTO 13009KT 10SM CLR 16/00 A3010 RMK AO2 KGZH 230053Z AUTO 00000KT 10SM CLR 14/10 A3010 RMK AO2 SLP192 T01390100 KGZL 230135Z AUTO 00000KT 10SM CLR 09/04 A3010 RMK AO2 KGZS 230135Z AUTO 30004KT 10SM CLR 11/04 A3009 RMK A01
[21:20] View Mode: Spot Plane
[21:20] Flaps: Position 0
[21:23] Parking Brake: Engaged
[21:23] Main Door Open
[21:24] Main Door Closed
[21:25] Flaps: Position 1
[21:26] Parking Brake: Released
[21:27] Landing Gear: Retracted
[21:27] GS: 79 knots
[21:27] TAS: 79 knots
[21:27] IAS: 74 knots
[21:27] VS: 525 fpm
[21:27] AGL: 32 ft
[21:27] AMSL: 4461 ft
[21:27] Autopilot: Engaged
[21:27] AGL: 42 ft
[21:27] AMSL: 4471 ft
[21:27] Flaps: Position 0
[21:27] GS: 93 knots
[21:27] TAS: 95 knots
[21:27] IAS: 89 knots
[21:27] VS: 474 fpm
[21:27] View Mode: Spot Plane
[21:28] Recovery: Flight Saved
[21:30] Autopilot: Disengaged
[21:30] AGL: 1135 ft
[21:30] AMSL: 6994 ft
[21:30] COM1: 122.90
[21:31] Autopilot: Engaged
[21:31] AGL: 1506 ft
[21:31] AMSL: 6351 ft
[21:32] Flaps: Position 1
[21:32] GS: 110 knots
[21:32] TAS: 112 knots
[21:32] IAS: 103 knots
[21:32] VS: -722 fpm
[21:33] FS: Paused
[21:35] FS: Unpaused
[21:35] Flaps: Position 2
[21:35] GS: 104 knots
[21:35] TAS: 105 knots
[21:35] IAS: 98 knots
[21:35] VS: -988 fpm
[21:36] Landing Gear: Extended
[21:36] GS: 95 knots
[21:36] TAS: 96 knots
[21:36] IAS: 91 knots
[21:36] VS: -1001 fpm
[21:36] AGL: 1010 ft
[21:36] AMSL: 3723 ft
[21:36] Flaps: Position 3
[21:36] GS: 91 knots
[21:36] TAS: 92 knots
[21:36] IAS: 88 knots
[21:36] VS: -691 fpm
[21:38] Autopilot: Disengaged
[21:38] AGL: 584 ft
[21:38] AMSL: 2982 ft
[21:40] NOTE: ----- LANDED -----
[21:40] Landing Rate: -229.15 fpm
[21:40] GS: 54 knots
[21:40] TAS: 55 knots
[21:40] IAS: 53 knots
[21:40] VS: -229 fpm
[21:40] FOB: 337 lbs
[21:40] Heading: 108°
[21:40] Pitch: 0°
[21:40] Bank: -1°
[21:40] Aircraft Weight: 2442.82 lbs
[21:40] Nearest Airport: KGZ
[21:40] Distance: 0.13 miles
[21:40] Runway: ???
[21:40] Ground Surface: Urban
[21:40] Ground Condition: Snow
[21:40] NOTE: Weather Report
[21:40] Wind Heading: 337°
[21:40] Wind Speed: 0 knots
[21:40] OAT: 10° C
[21:40] TAT: 10° C
[21:40] Precipitation: None
[21:40] Dew Point: 0° C
[21:40] Visibility: 62 miles
[21:40] METAR: KGZN 230120Z AUTO 13009KT 10SM CLR 16/00 A3010 RMK AO2 KGZH 230053Z AUTO 00000KT 10SM CLR 14/10 A3010 RMK AO2 SLP192 T01390100 KGZL 230135Z AUTO 00000KT 10SM CLR 09/04 A3010 RMK AO2 KGZS 230135Z AUTO 30004KT 10SM CLR 11/04 A3009 RMK A01
[21:40] View Mode: Spot Plane
[21:40] Flaps: Position 0
[21:42] Parking Brake: Engaged
[21:42] Engine 1: Stopped
[21:42] Main Door Open
[21:42] Light Data: Navigation OFF
[21:42] Light Data: Beacon OFF
[21:42] Light Data: Landing lights OFF
[21:42] Light Data: Taxi lights OFF
[21:42] Light Data: Strobe lights OFF
[21:42] Light Data: Instrument lights OFF
[21:42] Light Data: Recognition lights OFF
[21:42] Light Data: Wing lights OFF
[21:42] Light Data: Logo lights OFF
[21:42] Light Data: Cabin lights OFF
[21:47] FS: Paused
[21:49] Gate: n/a
[21:49] NOTE: Flight Completed
[21:49] FS Aircraft: C185F AMPHIBIAN Alaska Adventures
[21:49] FS Model: C185
[21:49] FS Type: Cessna
[21:49] FOB: 337 lbs
[21:49] Fuel Used: 46 lbs
[21:49] Flight Time: 00:48:39
[21:49] Flight Time (Dawn): 00:00:00
[21:49] Flight Time (Day): 00:48:39
[21:49] Flight Time (Dusk): 00:00:00
[21:49] Flight Time (Night): 00:00:00
[21:49] Total Landings: 3
[21:49] MaxSim Rate: 1x
[21:49] Cigar Box - 1.1.4.0
[21:49] ----- Flight Closed -----

Route Map